createdAt,value
2022-10-28T00:02:44.825Z,100130.31
2022-10-28T00:05:34.497Z,100132.81
2022-10-28T00:08:20.277Z,100128.38
2022-10-28T00:11:12.528Z,100126.63
2022-10-28T00:13:58.822Z,100118.69
2022-10-28T00:16:44.214Z,100112.59
2022-10-28T00:19:30.022Z,100112.59
2022-10-28T00:22:15.418Z,100109.28
2022-10-28T00:25:00.627Z,100111.03
2022-10-28T00:27:45.846Z,100113.69
2022-10-28T00:33:21.503Z,100100.50
2022-10-28T00:36:13.746Z,100094.34
2022-10-28T00:39:00.145Z,100088.22
2022-10-28T00:41:50.085Z,100089.94
2022-10-28T00:44:55.157Z,100088.19
2022-10-28T00:47:52.743Z,100074.16
2022-10-28T00:50:52.039Z,100054.91
2022-10-28T00:53:39.841Z,100058.38
2022-10-28T00:56:28.333Z,100052.31
2022-10-28T00:59:29.844Z,100034.84
2022-10-28T01:02:15.873Z,100019.06
2022-10-28T01:05:01.639Z,100010.22
2022-10-28T01:07:47.143Z,99991.94
2022-10-28T01:10:53.096Z,99972.78
2022-10-28T01:14:06.173Z,99962.41
2022-10-28T01:17:13.313Z,99965.97
2022-10-28T01:20:13.994Z,99960.72
2022-10-28T01:23:25.275Z,99951.13
2022-10-28T01:26:40.767Z,99948.47
2022-10-28T01:29:43.936Z,99940.59
2022-10-28T01:33:00.089Z,99918.69
2022-10-28T01:36:07.794Z,99922.94
2022-10-28T01:39:16.322Z,99895.81
2022-10-28T01:42:26.796Z,99897.44
2022-10-28T01:45:20.907Z,99885.22
2022-10-28T01:48:17.871Z,99889.56
2022-10-28T01:51:40.546Z,99879.97
2022-10-28T01:54:29.728Z,99859.00
2022-10-28T01:57:18.312Z,99846.78
2022-10-28T02:00:05.149Z,99846.59
2022-10-28T02:02:57.958Z,99848.41
2022-10-28T02:05:47.731Z,99823.84
2022-10-28T02:08:57.865Z,99816.03
2022-10-28T02:11:46.377Z,99803.69
2022-10-28T02:15:02.768Z,99778.53
2022-10-28T02:18:00.361Z,99762.66
2022-10-28T02:20:55.315Z,99760.03
2022-10-28T02:23:53.469Z,99746.84
2022-10-28T02:26:44.715Z,99732.97
2022-10-28T02:29:36.870Z,99710.25
2022-10-28T02:32:27.824Z,99704.00
2022-10-28T02:35:27.258Z,99693.56
2022-10-28T02:38:18.452Z,99680.44
2022-10-28T02:41:11.427Z,99662.19
2022-10-28T02:44:03.082Z,99656.22
2022-10-28T02:46:50.539Z,99638.75
2022-10-28T02:49:40.059Z,99621.22
2022-10-28T02:52:28.385Z,99623.06
2022-10-28T02:55:13.899Z,99592.47
2022-10-28T02:58:00.136Z,99615.19
2022-10-28T03:00:46.713Z,99599.34
2022-10-28T03:03:32.085Z,99599.34
2022-10-28T03:06:18.324Z,99564.28
2022-10-28T03:09:03.727Z,99554.56
2022-10-28T03:11:49.166Z,99552.78
2022-10-28T03:14:34.665Z,99533.59
2022-10-28T03:17:19.961Z,99506.56
2022-10-28T03:20:05.910Z,99488.22
2022-10-28T03:22:51.851Z,99473.50
2022-10-28T03:25:37.751Z,99455.06
2022-10-28T03:28:23.363Z,99463.78
2022-10-28T03:31:08.793Z,99442.00
2022-10-28T03:33:54.289Z,99423.53
2022-10-28T03:36:39.638Z,99414.91
2022-10-28T03:39:25.024Z,99416.63
2022-10-28T03:42:10.421Z,99411.44
2022-10-28T03:44:55.647Z,99408.81
2022-10-28T03:47:41.121Z,99394.84
2022-10-28T03:50:26.748Z,99384.31
2022-10-28T03:53:12.164Z,99386.81
2022-10-28T03:56:00.436Z,99368.25
2022-10-28T03:58:48.695Z,99377.78
2022-10-28T04:01:34.135Z,99348.03
2022-10-28T04:04:20.300Z,99326.97
2022-10-28T04:07:05.611Z,99331.34
2022-10-28T04:09:51.617Z,99320.13
2022-10-28T04:12:37.098Z,99330.50
2022-10-28T04:15:22.770Z,99320.19
2022-10-28T04:18:08.476Z,99332.41
2022-10-28T04:20:54.031Z,99339.34
2022-10-28T04:23:39.367Z,99315.84
2022-10-28T04:26:25.602Z,99311.66
2022-10-28T04:29:10.994Z,99326.47
2022-10-28T04:31:56.314Z,99324.75
2022-10-28T04:34:41.627Z,99374.41
2022-10-28T04:37:27.043Z,99439.28
2022-10-28T04:40:12.797Z,99468.72
2022-10-28T04:42:58.495Z,99465.13
2022-10-28T04:45:45.101Z,99516.66
2022-10-28T04:48:30.809Z,99543.53
2022-10-28T04:51:16.213Z,99600.31
2022-10-28T04:54:01.694Z,99628.59
2022-10-28T04:56:47.156Z,99636.00
2022-10-28T04:59:32.710Z,99670.22
2022-10-28T05:02:18.374Z,99661.09
2022-10-28T05:05:04.763Z,99676.91
2022-10-28T05:07:50.487Z,99695.34
2022-10-28T05:10:35.813Z,99725.03
2022-10-28T05:13:21.219Z,99748.59
2022-10-28T05:16:07.260Z,99748.63
2022-10-28T05:18:53.020Z,99760.06
2022-10-28T05:21:38.349Z,99788.00
2022-10-28T05:24:23.775Z,99811.63
2022-10-28T05:27:09.315Z,99820.28
2022-10-28T05:29:54.626Z,99846.34
2022-10-28T05:32:40.229Z,99857.88
2022-10-28T05:35:25.650Z,99883.16
2022-10-28T05:38:11.092Z,99885.00
2022-10-28T05:40:56.980Z,99888.63
2022-10-28T05:43:42.271Z,99912.31
2022-10-28T05:46:27.665Z,99900.28
2022-10-28T05:49:13.178Z,99894.28
2022-10-28T05:51:58.716Z,99925.75
2022-10-28T05:54:44.219Z,99929.38
2022-10-28T05:57:29.657Z,99925.06
2022-10-28T06:00:16.933Z,99939.91
2022-10-28T06:03:10.952Z,99959.94
2022-10-28T06:05:57.582Z,99967.78
2022-10-28T06:08:42.907Z,99993.06
2022-10-28T06:11:26.723Z,99993.94
2022-10-28T06:14:12.072Z,100013.97
2022-10-28T06:16:57.935Z,100022.69
2022-10-28T06:19:43.402Z,100033.97
2022-10-28T06:22:28.661Z,100042.69
2022-10-28T06:25:14.197Z,100054.84
2022-10-28T06:28:01.355Z,100064.41
2022-10-28T06:30:46.640Z,100076.53
2022-10-28T06:33:32.478Z,100073.94
2022-10-28T06:36:18.007Z,100073.97
2022-10-28T06:39:04.232Z,100080.03
2022-10-28T06:41:49.759Z,100104.31
2022-10-28T06:44:34.917Z,100119.06
2022-10-28T06:47:21.834Z,100125.13
2022-10-28T06:50:07.382Z,100120.78
2022-10-28T06:52:56.475Z,100122.53
2022-10-28T06:55:41.994Z,100135.53
2022-10-28T06:58:27.506Z,100147.72
2022-10-28T07:01:13.153Z,100138.22
2022-10-28T07:03:58.459Z,100150.34
2022-10-28T07:06:45.455Z,100162.53
2022-10-28T07:09:33.708Z,100172.91
2022-10-28T07:12:19.186Z,100185.03
2022-10-28T07:15:05.158Z,100195.47
2022-10-28T07:17:58.108Z,100206.72
2022-10-28T07:20:43.593Z,100231.00
2022-10-28T07:23:31.686Z,100248.34
2022-10-28T07:26:17.181Z,100263.06
2022-10-28T07:29:02.591Z,100268.28
2022-10-28T07:31:47.939Z,100283.84
2022-10-28T07:34:33.379Z,100292.53
2022-10-28T07:37:18.657Z,100303.78
2022-10-28T07:40:04.444Z,100313.34
2022-10-28T07:42:49.849Z,100328.94
2022-10-28T07:45:36.315Z,100323.75
2022-10-28T07:48:21.872Z,100341.06
2022-10-28T07:51:08.892Z,100342.81
2022-10-28T07:53:56.603Z,100356.66
2022-10-28T07:56:42.173Z,100353.22
2022-10-28T07:59:27.712Z,100368.81
2022-10-28T08:02:18.872Z,100376.63
2022-10-28T08:05:05.089Z,100374.03
2022-10-28T08:07:50.340Z,100387.03
2022-10-28T08:10:35.737Z,100387.91
2022-10-28T08:13:21.429Z,100379.22
2022-10-28T08:16:08.302Z,100380.13
2022-10-28T08:18:53.926Z,100380.13
2022-10-28T08:21:39.467Z,100396.59
2022-10-28T08:24:24.806Z,100399.19
2022-10-28T08:27:10.164Z,100404.38
2022-10-28T08:29:55.721Z,100406.97
2022-10-28T08:32:41.130Z,100421.72
2022-10-28T08:35:26.475Z,100417.38
2022-10-28T08:38:11.786Z,100428.63
2022-10-28T08:41:15.465Z,100428.59
2022-10-28T08:44:28.806Z,100447.72
2022-10-28T08:47:41.808Z,100439.00
2022-10-28T08:50:32.030Z,100445.91
2022-10-28T08:53:44.953Z,100452.84
2022-10-28T08:56:58.846Z,100447.63
2022-10-28T08:59:45.844Z,100448.44
2022-10-28T09:02:47.264Z,100445.75
2022-10-28T09:05:33.037Z,100462.19
2022-10-28T09:08:23.642Z,100457.75
2022-10-28T09:11:47.531Z,100460.31
2022-10-28T09:14:50.326Z,100459.31
2022-10-28T09:17:56.155Z,100468.84
2022-10-28T09:20:55.805Z,100463.59
2022-10-28T09:23:53.313Z,100468.69
2022-10-28T09:26:41.794Z,100462.56
2022-10-28T09:29:52.022Z,100445.94
2022-10-28T09:32:58.601Z,100455.41
2022-10-28T09:35:47.353Z,100453.59
2022-10-28T09:38:38.056Z,100451.75
2022-10-28T09:41:31.908Z,100467.34
2022-10-28T09:44:28.652Z,100473.44
2022-10-28T09:47:23.750Z,100479.44
2022-10-28T09:50:31.618Z,100472.38
2022-10-28T09:53:36.282Z,100479.22
2022-10-28T09:56:23.413Z,100487.00
2022-10-28T09:59:15.094Z,100493.00
2022-10-28T10:02:00.961Z,100493.00
2022-10-28T10:04:46.637Z,100495.53
2022-10-28T10:07:36.976Z,100492.84
2022-10-28T10:10:25.647Z,100500.59
2022-10-28T10:13:13.540Z,100504.88
2022-10-28T10:16:14.232Z,100513.53
2022-10-28T10:19:03.218Z,100516.91
2022-10-28T10:21:51.591Z,100517.69
2022-10-28T10:24:37.336Z,100518.50
2022-10-28T10:27:23.164Z,100517.47
2022-10-28T10:30:17.492Z,100531.34
2022-10-28T10:33:03.797Z,100524.22
2022-10-28T10:36:02.999Z,100528.47
2022-10-28T10:38:54.439Z,100531.94
2022-10-28T10:41:42.354Z,100529.19
2022-10-28T10:44:35.689Z,100539.53
2022-10-28T10:47:21.361Z,100536.63
2022-10-28T10:53:32.593Z,100535.91
2022-10-28T10:56:27.610Z,100551.56
2022-10-28T10:59:29.399Z,100541.78
2022-10-28T11:02:24.221Z,100548.59
2022-10-28T11:05:10.786Z,100551.03
2022-10-28T11:07:58.732Z,100545.56
2022-10-28T11:10:44.613Z,100547.06
2022-10-28T11:13:30.988Z,100567.03
2022-10-28T11:16:23.078Z,100570.38
2022-10-28T11:19:36.187Z,100569.38
2022-10-28T11:22:47.637Z,100568.28
2022-10-28T11:25:38.538Z,100574.28
2022-10-28T11:28:48.383Z,100575.03
2022-10-28T11:32:05.355Z,100586.13
2022-10-28T11:34:54.079Z,100570.94
2022-10-28T11:38:12.768Z,100568.97
2022-10-28T11:41:22.073Z,100577.47
2022-10-28T11:44:41.610Z,100570.22
2022-10-28T11:47:53.743Z,100576.94
2022-10-28T11:51:10.362Z,100572.25
2022-10-28T11:54:17.304Z,100556.19
2022-10-28T11:57:10.883Z,100556.75
2022-10-28T12:00:24.290Z,100561.59
2022-10-28T12:03:18.887Z,100543.81
2022-10-28T12:06:36.843Z,100538.78
2022-10-28T12:09:38.390Z,100540.75
2022-10-28T12:13:01.993Z,100537.25
2022-10-28T12:16:02.295Z,100535.81
2022-10-28T12:19:00.200Z,100531.38
2022-10-28T12:22:23.266Z,100527.31
2022-10-28T12:25:14.698Z,100536.44
2022-10-28T12:28:06.254Z,100527.97
2022-10-28T12:30:53.792Z,100536.28
2022-10-28T12:33:46.863Z,100528.66
2022-10-28T12:36:41.724Z,100534.69
2022-10-28T12:39:56.909Z,100540.59
2022-10-28T12:42:48.045Z,100539.34
2022-10-28T12:45:33.573Z,100534.09
2022-10-28T12:48:32.139Z,100543.28
2022-10-28T12:51:36.442Z,100525.75
2022-10-28T12:54:25.539Z,100526.09
2022-10-28T12:57:17.346Z,100526.19
2022-10-28T13:00:17.052Z,100527.03
2022-10-28T13:03:11.667Z,100527.81
2022-10-28T13:06:12.281Z,100528.78
2022-10-28T13:09:09.756Z,100532.16
2022-10-28T13:12:39.804Z,100536.28
2022-10-28T13:15:36.304Z,100533.13
2022-10-28T13:18:30.700Z,100542.66
2022-10-28T13:21:51.204Z,100540.22
2022-10-28T13:24:49.544Z,100526.34
2022-10-28T13:30:23.036Z,100535.88
2022-10-28T13:33:16.822Z,100527.03
2022-10-28T13:36:16.173Z,100526.94
2022-10-28T13:39:06.370Z,100518.09
2022-10-28T13:42:14.979Z,100529.09
2022-10-28T13:45:02.436Z,100537.41
2022-10-28T13:47:47.755Z,100522.66
2022-10-28T13:50:34.205Z,100528.63
2022-10-28T13:53:28.885Z,100524.97
2022-10-28T13:56:19.996Z,100536.91
2022-10-28T13:59:29.448Z,100535.97
2022-10-28T14:02:38.648Z,100547.28
2022-10-28T14:05:47.408Z,100541.84
2022-10-28T14:08:40.896Z,100552.03
2022-10-28T14:11:32.514Z,100548.59
2022-10-28T14:14:18.060Z,100544.94
2022-10-28T14:17:04.292Z,100552.13
2022-10-28T14:19:52.095Z,100562.47
2022-10-28T14:22:37.881Z,100562.75
2022-10-28T14:25:43.625Z,100559.81
2022-10-28T14:28:29.295Z,100575.47
2022-10-28T14:31:15.819Z,100571.75
2022-10-28T14:34:01.251Z,100585.63
2022-10-28T14:36:58.979Z,100574.25
2022-10-28T14:40:23.697Z,100574.81
2022-10-28T14:43:33.867Z,100580.22
2022-10-28T14:46:25.536Z,100589.47
2022-10-28T14:49:31.125Z,100589.72
2022-10-28T14:52:19.418Z,100589.81
2022-10-28T14:55:08.452Z,100579.31
2022-10-28T14:57:54.405Z,100577.13
2022-10-28T15:00:49.737Z,100580.00
2022-10-28T15:03:35.761Z,100585.53
2022-10-28T15:06:29.085Z,100590.09
2022-10-28T15:09:23.606Z,100577.38
2022-10-28T15:12:17.720Z,100580.53
2022-10-28T15:15:03.030Z,100592.34
2022-10-28T15:17:49.567Z,100596.81
2022-10-28T15:20:36.225Z,100603.00
2022-10-28T15:23:24.993Z,100595.16
2022-10-28T15:26:16.617Z,100600.50
2022-10-28T15:29:02.005Z,100600.91
2022-10-28T15:32:07.672Z,100601.28
2022-10-28T15:34:53.427Z,100613.72
2022-10-28T15:37:38.970Z,100606.91
2022-10-28T15:40:27.499Z,100628.97
2022-10-28T15:43:24.025Z,100609.03
2022-10-28T15:46:15.210Z,100612.53
2022-10-28T15:49:02.180Z,100615.16
2022-10-28T15:52:19.168Z,100615.09
2022-10-28T15:55:21.774Z,100621.09
2022-10-28T15:58:18.027Z,100619.34
2022-10-28T16:01:27.167Z,100607.28
2022-10-28T16:04:18.787Z,100624.28
2022-10-28T16:07:09.078Z,100623.56
2022-10-28T16:09:54.411Z,100629.09
2022-10-28T16:12:45.414Z,100635.47
2022-10-28T16:15:32.226Z,100640.78
2022-10-28T16:18:17.577Z,100630.50
2022-10-28T16:21:04.812Z,100642.81
2022-10-28T16:23:56.422Z,100643.91
2022-10-28T16:26:41.697Z,100656.38
2022-10-28T16:29:26.860Z,100655.66
2022-10-28T16:32:13.721Z,100659.16
2022-10-28T16:34:59.162Z,100663.63
2022-10-28T16:37:46.600Z,100678.59
2022-10-28T16:40:51.848Z,100675.19
2022-10-28T16:43:37.777Z,100670.88
2022-10-28T16:46:23.413Z,100667.53
2022-10-28T16:49:08.590Z,100683.41
2022-10-28T16:51:54.609Z,100683.47
2022-10-28T16:54:40.294Z,100691.44
2022-10-28T16:57:26.769Z,100689.69
2022-10-28T17:00:16.043Z,100698.56
2022-10-28T17:03:01.413Z,100695.94
2022-10-28T17:05:46.898Z,100690.75
2022-10-28T17:09:00.663Z,100698.72
2022-10-28T17:11:37.638Z,100690.91
2022-10-28T17:14:22.999Z,100701.59
2022-10-28T17:17:09.207Z,100705.19
2022-10-28T17:19:54.817Z,100704.38
2022-10-28T17:22:40.973Z,100714.03
2022-10-28T17:25:27.347Z,100714.03
2022-10-28T17:28:13.035Z,100706.19
2022-10-28T17:31:03.647Z,100704.38
2022-10-28T17:33:53.348Z,100707.00
2022-10-28T17:36:39.088Z,100707.16
2022-10-28T17:39:26.503Z,100714.97
2022-10-28T17:42:12.256Z,100711.47
2022-10-28T17:44:57.619Z,100696.72
2022-10-28T17:47:43.033Z,100701.94
2022-10-28T17:50:28.714Z,100715.03
2022-10-28T17:53:14.768Z,100702.09
2022-10-28T17:56:03.941Z,100720.47
2022-10-28T17:58:52.459Z,100720.53
2022-10-28T18:01:38.233Z,100723.19
2022-10-28T18:04:26.535Z,100722.28
2022-10-28T18:07:12.000Z,100724.06
2022-10-28T18:09:57.356Z,100723.19
2022-10-28T18:12:42.945Z,100735.47
2022-10-28T18:15:28.310Z,100747.69
2022-10-28T18:18:14.782Z,100746.00
2022-10-28T18:21:00.760Z,100745.22
2022-10-28T18:23:54.517Z,100753.13
2022-10-28T18:26:40.179Z,100745.38
2022-10-28T18:29:26.243Z,100759.34
2022-10-28T18:32:12.197Z,100759.34
2022-10-28T18:34:57.802Z,100764.56
2022-10-28T18:37:43.309Z,100770.63
2022-10-28T18:40:28.651Z,100781.16
2022-10-28T18:43:14.719Z,100788.16
2022-10-28T18:46:04.656Z,100790.75
2022-10-28T18:48:50.143Z,100798.59
2022-10-28T18:51:36.601Z,100784.66
2022-10-28T18:54:22.323Z,100789.06
2022-10-28T18:57:07.693Z,100792.50
2022-10-28T19:02:58.302Z,100788.00
2022-10-28T19:05:43.748Z,100787.97
2022-10-28T19:08:29.369Z,100796.78
2022-10-28T19:11:14.912Z,100808.16
2022-10-28T19:14:02.754Z,100822.16
2022-10-28T19:16:48.377Z,100822.16
2022-10-28T19:19:38.356Z,100826.53
2022-10-28T19:22:25.148Z,100837.00
2022-10-28T19:25:10.691Z,100823.94
2022-10-28T19:27:57.837Z,100830.97
2022-10-28T19:30:43.289Z,100822.31
2022-10-28T19:33:30.570Z,100823.22
2022-10-28T19:36:24.565Z,100817.16
2022-10-28T19:39:10.258Z,100812.75
2022-10-28T19:41:55.632Z,100812.81
2022-10-28T19:44:40.909Z,100818.91
2022-10-28T19:47:26.418Z,100833.69
2022-10-28T19:50:12.072Z,100829.38
2022-10-28T19:52:57.342Z,100836.38
2022-10-28T19:55:42.725Z,100851.22
2022-10-28T19:58:29.747Z,100851.28
2022-10-28T20:01:15.548Z,100852.16
2022-10-28T20:04:01.718Z,100849.50
2022-10-28T20:06:47.363Z,100847.72
2022-10-28T20:09:32.623Z,100853.88
2022-10-28T20:12:17.979Z,100852.13
2022-10-28T20:15:03.777Z,100851.31
2022-10-28T20:17:49.046Z,100857.47
2022-10-28T20:20:35.104Z,100856.66
2022-10-28T20:23:20.724Z,100857.53
2022-10-28T20:26:07.027Z,100853.16
2022-10-28T20:28:52.390Z,100860.13
2022-10-28T20:31:39.151Z,100869.72
2022-10-28T20:34:24.575Z,100861.91
2022-10-28T20:37:09.914Z,100858.47
2022-10-28T20:39:57.767Z,100861.94
2022-10-28T20:42:44.446Z,100861.06
2022-10-28T20:45:29.863Z,100852.28
2022-10-28T20:48:15.355Z,100856.66
2022-10-28T20:51:02.373Z,100864.50
2022-10-28T20:53:48.095Z,100862.78
2022-10-28T20:56:36.441Z,100866.28
2022-10-28T20:59:22.264Z,100873.25
2022-10-28T21:02:09.600Z,100885.41
2022-10-28T21:04:55.475Z,100890.66
2022-10-28T21:07:40.824Z,100895.88
2022-10-28T21:10:26.295Z,100894.13
2022-10-28T21:13:11.846Z,100898.47
2022-10-28T21:15:57.928Z,100895.00
2022-10-28T21:18:43.670Z,100895.84
2022-10-28T21:21:29.941Z,100892.41
2022-10-28T21:24:15.164Z,100897.63
2022-10-28T21:27:00.555Z,100895.03
2022-10-28T21:29:45.778Z,100904.63
2022-10-28T21:32:31.066Z,100908.13
2022-10-28T21:35:16.659Z,100917.69
2022-10-28T21:38:02.380Z,100922.06
2022-10-28T21:40:47.804Z,100918.56
2022-10-28T21:43:35.923Z,100928.16
2022-10-28T21:46:23.044Z,100917.72
2022-10-28T21:49:08.732Z,100912.50
2022-10-28T21:51:53.938Z,100918.59
2022-10-28T21:54:39.469Z,100924.72
2022-10-28T21:57:30.218Z,100930.78
2022-10-28T22:00:16.073Z,100934.25
2022-10-28T22:03:01.702Z,100932.47
2022-10-28T22:05:50.860Z,100944.69
2022-10-28T22:08:36.677Z,100938.59
2022-10-28T22:11:23.975Z,100935.94
2022-10-28T22:14:09.844Z,100937.66
2022-10-28T22:16:55.484Z,100924.63
2022-10-28T22:19:40.939Z,100937.66
2022-10-28T22:22:26.289Z,100924.59
2022-10-28T22:25:11.587Z,100925.47
2022-10-28T22:27:57.170Z,100921.97
2022-10-28T22:30:42.454Z,100921.09
2022-10-28T22:33:27.769Z,100919.34
2022-10-28T22:36:15.997Z,100926.25
2022-10-28T22:39:01.237Z,100927.16
2022-10-28T22:41:46.668Z,100948.00
2022-10-28T22:44:32.031Z,100945.41
2022-10-28T22:47:17.669Z,100954.97
2022-10-28T22:50:03.628Z,100948.00
2022-10-28T22:52:48.908Z,100956.69
2022-10-28T22:55:34.248Z,100954.13
2022-10-28T22:58:20.236Z,100961.13
2022-10-28T23:01:07.090Z,100968.94
2022-10-28T23:03:53.863Z,100970.69
2022-10-28T23:06:39.466Z,100977.75
2022-10-28T23:09:24.702Z,100987.34
2022-10-28T23:12:10.167Z,100978.63
2022-10-28T23:14:55.974Z,100987.38
2022-10-28T23:17:41.491Z,100983.00
2022-10-28T23:20:26.708Z,100993.44
2022-10-28T23:23:12.133Z,100974.28
2022-10-28T23:25:57.510Z,100978.66
2022-10-28T23:28:43.106Z,100978.63
2022-10-28T23:31:29.018Z,100974.25
2022-10-28T23:34:14.494Z,100978.59
2022-10-28T23:36:59.813Z,100975.09
2022-10-28T23:39:45.332Z,100975.09
2022-10-28T23:42:30.682Z,100962.91
2022-10-28T23:45:16.073Z,100962.00
2022-10-28T23:48:01.513Z,100962.84
2022-10-28T23:50:46.923Z,100957.63
2022-10-28T23:53:32.527Z,100961.13
2022-10-28T23:56:17.841Z,100963.78
2022-10-28T23:59:03.285Z,100955.94
